Kamera  Kamera


Thunder radar more information blitzortung!


Rain radar more information rain snow radar



Nearby METAR Reports

   
EHVK - Volkel Rnlafb, Netherlands
Distance from station: SW 18 km
Updated: 19-09-2019 04:25
Overcast  
Overcast  
   Wind: NNW 1.9 km/h
Wind: NNW 1.9 km/h
Temperature: 9°C
Dew Point: 8°C
Humidity: 94%
Barometer: 1029 hPa
Clouds: Overcast
Visibility: More than 10 km
Cloud details: Overcast 4400 ft
EHVK 190225Z AUTO 33001KT 9999 OVC044 09/08 Q1029 BLU
EDLV - Niederrhein, Germany
Distance from station: SE 25 km
Updated: 18-09-2019 23:50
NOT Current
Clear  
Clear  
   Wind: varies 1.9 km/h
Wind: varies 1.9 km/h
Temperature: 9°C
Dew Point: 7°C
Humidity: 87%
Barometer: 1029 hPa
Visibility: More than 10 km
Cloud details: Clear
EDLV 182150Z VRB01KT CAVOK 09/07 Q1029
EHDL - Deelen Rnlafb, Netherlands
Distance from station: N 35 km
Updated: 19-09-2019 04:25
Overcast  
Overcast  
   Wind: Calm
Wind: Calm
Temperature: 7°C
Dew Point: 7°C
Humidity: 100%
Barometer: 1029 hPa
Clouds: Overcast
Visibility: More than 10 km
Cloud details: Overcast 3300 ft
EHDL 190225Z AUTO 00000KT 9999 OVC033 07/07 Q1029 BLU
EHEH - Eindhoven Rnlafb, Netherlands
Distance from station: SW 48 km
Updated: 19-09-2019 04:25
Overcast  
Overcast  
   Wind: West 3.7 km/h
Wind: West 3.7 km/h
Temperature: 8°C
Dew Point: 7°C
Humidity: 93%
Barometer: 1029 hPa
Clouds: Overcast
Visibility: More than 10 km
Cloud details: Few Clouds 3800 ft,
Overcast 4300 ft
EHEH 190225Z AUTO 26002KT 9999 FEW038 OVC043 08/07 Q1029 BLU
EHGR - Gilze-Rijen Rnla, Netherlands
Distance from station: WSW 70 km
Updated: 19-09-2019 04:25
Overcast  
Overcast  
   Wind: WNW 1.9 km/h
Wind: WNW 1.9 km/h
Temperature: 7°C
Dew Point: 6°C
Humidity: 93%
Barometer: 1029 hPa
Clouds: Overcast
Visibility: More than 10 km
Cloud details: Few Clouds 3400 ft,
Overcast 4400 ft
EHGR 190225Z AUTO 30001KT 9999 FEW034 OVC044 07/06 Q1029 BLU
EBBL - Kleine-Brogel(Ba, Belgium
Distance from station: SSW 71 km
Updated: 19-09-2019 04:40
Mist, Clear  
Mist, Clear  
   Wind: varies 1.9 km/h
Wind: varies 1.9 km/h
Temperature: 5°C
Dew Point: 5°C
Humidity: 100%
Barometer: 1030 hPa
Clouds: Clear
Visibility: 0 km
Cloud details: Clear
EBBL 190240Z AUTO VRB01KT 0350 BR NCD 05/05 Q1030 RED

Script developed by  Saratoga-weather.org Adapted for the template by  Weerstation Leuven